Time;durP1;ratioP1;P1;durP2;ratioP2;P2;SDS_P1;SDS_P2;PMS_P1;PMS_P2;Temp;Humidity;BMP_temperature;BMP_pressure;BME280_temperature;BME280_humidity;BME280_pressure;Samples;Min_cycle;Max_cycle;Signal;HPM_P1;HPM_P2
2022/06/01 00:00:56;;;;;;;32.10;28.23;;;;;;;;;;5012344;28;20113;-81
2022/06/01 00:03:23;;;;;;;32.92;28.45;;;;;;;10.34;100.00;67924.91;5010934;28;20049;-78
2022/06/01 00:05:53;;;;;;;31.27;27.98;;;;;;;10.23;100.00;67909.72;5009523;28;20041;-79
2022/06/01 00:08:19;;;;;;;31.63;26.15;;;;;;;10.21;100.00;67912.78;5007659;28;20084;-78
2022/06/01 00:10:44;;;;;;;31.08;27.83;;;;;;;10.21;100.00;67910.13;5005979;28;20046;-79
2022/06/01 00:13:09;;;;;;;31.23;26.08;;;;;;;;;;5007412;28;20030;-78
2022/06/01 00:15:34;;;;;;;32.03;28.33;;;;;;;;;;5007972;28;20049;-79
2022/06/01 00:18:00;;;;;;;28.45;24.88;;;;;;;10.16;100.00;67905.59;5006647;28;20285;-79
2022/06/01 00:20:27;;;;;;;29.20;25.42;;;;;;;10.20;100.00;67909.00;5006851;28;20057;-77
2022/06/01 00:22:53;;;;;;;28.13;24.58;;;;;;;10.21;100.00;67908.03;5006741;28;20046;-80
2022/06/01 00:25:18;;;;;;;25.90;22.67;;;;;;;10.20;100.00;67901.00;5010503;28;20103;-78
2022/06/01 00:27:44;;;;;;;26.90;23.90;;;;;;;10.19;100.00;67910.53;5011109;28;20038;-78
2022/06/01 00:30:13;;;;;;;31.10;23.73;;;;;;;10.14;100.00;67900.66;5010511;28;20045;-77
2022/06/01 00:32:38;;;;;;;27.35;22.58;;;;;;;;;;5010025;28;20065;-79
2022/06/01 00:35:05;;;;;;;28.85;24.15;;;;;;;10.07;100.00;67892.72;5011541;28;20088;-80
2022/06/01 00:37:30;;;;;;;28.85;23.48;;;;;;;10.03;100.00;67888.16;5010455;28;20072;-78
2022/06/01 00:39:56;;;;;;;29.00;23.63;;;;;;;10.04;100.00;67888.72;5010907;28;20530;-79
2022/06/01 00:42:31;;;;;;;26.60;23.55;;;;;;;;;;5008542;28;20041;-79
2022/06/01 00:44:57;;;;;;;30.48;25.65;;;;;;;10.14;100.00;67900.66;5008751;28;20053;-80
2022/06/01 00:47:24;;;;;;;28.60;25.60;;;;;;;10.16;100.00;67902.94;5011241;28;20042;-77
2022/06/01 00:50:00;;;;;;;28.35;25.35;;;;;;;10.12;100.00;67892.50;5010470;28;20060;-79
2022/06/01 00:52:40;;;;;;;27.50;22.85;;;;;;;;;;5010285;28;20496;-77
2022/06/01 00:55:25;;;;;;;28.70;25.80;;;;;;;;;;5010018;28;20056;-77
2022/06/01 00:57:56;;;;;;;27.55;24.65;;;;;;;10.09;100.00;67894.41;4992325;28;20121;-78
2022/06/01 01:00:23;;;;;;;29.60;25.17;;;;;;;;;;5011479;28;20126;-78
2022/06/01 01:02:52;;;;;;;27.05;24.15;;;;;;;10.02;100.00;67886.47;5009363;28;20046;-79
2022/06/01 01:05:17;;;;;;;26.20;22.08;;;;;;;9.92;100.00;67875.69;5010176;28;20469;-76
2022/06/01 01:07:43;;;;;;;29.55;26.55;;;;;;;;;;5009830;28;20112;-82
2022/06/01 01:10:09;;;;;;;27.88;24.85;;;;;;;;;;5010908;28;20046;-81
2022/06/01 01:15:20;;;;;;;29.23;25.92;;;;;;;9.92;100.00;67875.69;5013295;28;20057;-82
2022/06/01 01:17:46;;;;;;;29.25;25.60;;;;;;;;;;5008090;28;20042;-79
2022/06/01 01:20:12;;;;;;;30.27;26.95;;;;;;;9.91;100.00;67879.88;5009362;28;20468;-79
2022/06/01 01:22:45;;;;;;;30.23;25.08;;;;;;;9.79;100.00;67864.19;4992338;28;20056;-80
2022/06/01 01:25:10;;;;;;;29.35;25.80;;;;;;;;;;4988171;28;20092;-78
2022/06/01 01:27:36;;;;;;;30.13;26.98;;;;;;;9.80;100.00;67862.09;5008653;28;20046;-80
2022/06/01 01:30:26;;;;;;;30.40;27.17;;;;;;;9.71;100.00;67853.00;5007941;28;20041;-80
2022/06/01 01:32:51;;;;;;;31.55;26.13;;;;;;;;;;5006227;28;20092;-80
2022/06/01 01:35:17;;;;;;;31.05;27.00;;;;;;;9.70;100.00;67846.56;5006514;28;20054;-80
2022/06/01 01:37:43;;;;;;;30.85;27.60;;;;;;;9.65;100.00;67845.66;5007332;28;20037;-78
2022/06/01 01:40:09;;;;;;;30.92;27.45;;;;;;;9.58;100.00;67838.28;5006538;28;20038;-78
2022/06/01 01:42:35;;;;;;;31.90;28.55;;;;;;;9.59;100.00;67841.50;5008279;28;20045;-78
2022/06/01 01:45:18;;;;;;;32.72;29.17;;;;;;;9.57;100.00;67837.13;5007924;28;20044;-78
2022/06/01 01:47:44;;;;;;;32.40;28.90;;;;;;;9.54;100.00;67839.06;5006188;28;20042;-80
2022/06/01 01:50:11;;;;;;;32.72;27.00;;;;;;;9.40;100.00;67818.44;5006719;28;20052;-77
2022/06/01 01:52:37;;;;;;;31.92;28.52;;;;;;;9.48;100.00;67826.94;5006762;28;20073;-80
2022/06/01 01:55:37;;;;;;;32.22;28.70;;;;;;;9.48;100.00;67826.94;5008244;28;20092;-77
2022/06/01 01:59:01;;;;;;;36.03;29.45;;;;;;;9.45;100.00;67823.53;4984152;28;20056;-77
2022/06/01 02:02:02;;;;;;;35.63;31.30;;;;;;;9.44;100.00;67822.97;4889573;29;20090;-77
2022/06/01 02:07:44;;;;;;;37.63;31.58;;;;;;;9.47;100.00;67828.47;4974526;28;20112;-77
2022/06/01 02:12:54;;;;;;;38.30;32.00;;;;;;;;;;5007027;28;20388;-77
2022/06/01 02:15:25;;;;;;;41.17;35.25;;;;;;;9.47;100.00;67828.47;4999473;28;20046;-78
2022/06/01 02:17:54;;;;;;;37.95;30.85;;;;;;;9.39;100.00;67817.31;4991225;28;20044;-77
2022/06/01 02:20:32;;;;;;;40.08;35.60;;;;;;;;;;4990660;28;20042;-77
2022/06/01 02:22:59;;;;;;;41.42;36.15;;;;;;;9.51;100.00;67829.78;5007914;28;20056;-76
2022/06/01 02:25:24;;;;;;;39.67;33.30;;;;;;;9.45;100.00;67824.09;5008164;28;20056;-77
2022/06/01 02:27:52;;;;;;;43.88;33.72;;;;;;;9.40;100.00;67820.53;5009342;28;20038;-77
2022/06/01 02:30:31;;;;;;;44.08;36.85;;;;;;;9.45;100.00;67828.84;4985057;28;20069;-77
2022/06/01 02:32:57;;;;;;;43.28;36.92;;;;;;;9.53;100.00;67832.63;5008099;28;20124;-77
2022/06/01 02:35:24;;;;;;;42.95;37.80;;;;;;;;;;5007686;28;20045;-77
2022/06/01 02:37:54;;;;;;;43.00;35.97;;;;;;;9.56;100.00;67841.31;5007074;28;20049;-78
2022/06/01 02:40:22;;;;;;;42.92;34.47;;;;;;;9.50;100.00;67829.22;5005629;28;20141;-78
2022/06/01 02:42:52;;;;;;;45.88;33.75;;;;;;;;;;5008573;28;20121;-77
2022/06/01 02:45:21;;;;;;;;;;;;;;;9.48;100.00;67827.50;5007624;28;20056;-80
2022/06/01 02:47:48;;;;;;;44.13;35.78;;;;;;;9.48;100.00;67829.59;4991481;28;20005;-78
2022/06/01 02:50:18;;;;;;;43.30;37.85;;;;;;;9.49;100.00;67828.06;5007208;28;20042;-79
2022/06/01 02:52:44;;;;;;;43.83;37.97;;;;;;;9.56;100.00;67838.66;4988926;28;20049;-78
2022/06/01 02:55:10;;;;;;;45.03;39.10;;;;;;;9.52;100.00;67831.47;4989279;28;20042;-76
2022/06/01 02:57:38;;;;;;;44.63;38.28;;;;;;;9.52;100.00;67831.47;5008822;28;20140;-79
2022/06/01 03:00:09;;;;;;;46.35;35.25;;;;;;;9.46;100.00;67824.66;5008286;28;20038;-78
2022/06/01 03:02:39;;;;;;;45.58;36.78;;;;;;;9.40;100.00;67820.53;5007248;28;20485;-79
2022/06/01 03:05:04;;;;;;;48.95;36.60;;;;;;;9.37;100.00;67817.13;5007734;28;20458;-79
2022/06/01 03:07:30;;;;;;;46.03;37.35;;;;;;;9.42;100.00;67815.38;5010398;28;20128;-79
2022/06/01 03:09:55;;;;;;;48.53;39.15;;;;;;;9.39;100.00;67817.31;5008246;28;20034;-79
2022/06/01 03:12:20;;;;;;;48.58;37.55;;;;;;;9.39;100.00;67822.06;5008960;28;20497;-79
2022/06/01 03:14:46;;;;;;;50.80;40.13;;;;;;;9.40;100.00;67821.09;5010297;28;20047;-80
2022/06/01 03:17:12;;;;;;;48.58;40.10;;;;;;;9.45;100.00;67826.75;5007156;28;20505;-79
2022/06/01 03:19:37;;;;;;;52.95;39.60;;;;;;;9.48;100.00;67827.50;5010827;28;20045;-80
2022/06/01 03:22:04;;;;;;;50.65;41.15;;;;;;;9.51;100.00;67833.00;5007895;28;20430;-80
2022/06/01 03:24:30;;;;;;;47.92;39.95;;;;;;;9.60;100.00;67840.53;5009634;28;20611;-78
2022/06/01 03:26:56;;;;;;;50.60;40.50;;;;;;;9.54;100.00;67833.75;5010538;28;20733;-78
2022/06/01 03:29:24;;;;;;;51.33;41.28;;;;;;;9.54;100.00;67836.41;5008456;28;20045;-80
2022/06/01 03:31:51;;;;;;;50.30;41.38;;;;;;;9.49;100.00;67830.72;5010937;28;20511;-78
2022/06/01 03:34:17;;;;;;;49.10;38.22;;;;;;;9.49;100.00;67828.66;5010630;28;20050;-79
2022/06/01 03:36:42;;;;;;;51.78;40.25;;;;;;;9.51;100.00;67829.78;4976394;28;20049;-79
2022/06/01 03:39:08;;;;;;;47.40;39.90;;;;;;;9.53;100.00;67835.28;4999067;28;20259;-80
2022/06/01 03:41:33;;;;;;;49.17;41.15;;;;;;;9.60;100.00;67840.53;5012678;28;20460;-79
2022/06/01 03:46:42;;;;;;;47.85;41.13;;;;;;;9.67;100.00;67847.94;5003920;28;20048;-78
2022/06/01 03:49:08;;;;;;;47.85;40.13;;;;;;;9.55;100.00;67839.63;5004968;28;20038;-80
2022/06/01 03:51:33;;;;;;;49.20;38.60;;;;;;;9.58;100.00;67843.59;5006051;28;20034;-77
2022/06/01 03:54:00;;;;;;;50.47;39.55;;;;;;;9.60;100.00;67839.97;5006222;28;20046;-78
2022/06/01 03:56:26;;;;;;;47.13;41.25;;;;;;;9.65;100.00;67850.97;5005904;28;20417;-79
2022/06/01 03:58:51;;;;;;;52.67;39.70;;;;;;;;;;5012300;28;20046;-80
2022/06/01 04:01:17;;;;;;;51.85;42.88;;;;;;;9.60;100.00;67843.19;5008996;28;20050;-78
2022/06/01 04:03:43;;;;;;;48.20;40.53;;;;;;;9.61;100.00;67841.69;5009630;28;20416;-79
2022/06/01 04:06:08;;;;;;;50.45;43.60;;;;;;;9.77;100.00;67858.69;5005872;28;20046;-79
2022/06/01 04:08:34;;;;;;;49.88;44.13;;;;;;;9.75;100.00;67864.94;5008443;28;20033;-78
2022/06/01 04:10:59;;;;;;;50.50;44.17;;;;;;;9.75;100.00;67861.72;5006638;28;20053;-77
2022/06/01 04:13:26;;;;;;;51.25;42.00;;;;;;;;;;5009339;28;20037;-79
2022/06/01 04:15:51;;;;;;;51.03;40.85;;;;;;;9.74;100.00;67858.50;5007653;28;20049;-79
2022/06/01 04:18:17;;;;;;;51.72;40.83;;;;;;;9.84;100.00;67871.94;5010562;28;20041;-78
2022/06/01 04:20:43;;;;;;;48.17;38.67;;;;;;;;;;5007804;28;20046;-78
2022/06/01 04:23:08;;;;;;;52.30;43.13;;;;;;;9.91;100.00;67875.13;5013530;28;20030;-77
2022/06/01 04:25:33;;;;;;;51.30;42.63;;;;;;;;;;4996839;28;20134;-77
2022/06/01 04:27:58;;;;;;;48.65;41.75;;;;;;;9.91;100.00;67874.56;5017818;28;20822;-78
2022/06/01 04:30:24;;;;;;;50.78;44.60;;;;;;;9.90;100.00;67878.75;5018750;28;20099;-78
2022/06/01 04:32:52;;;;;;;54.15;44.28;;;;;;;9.85;100.00;67867.75;5020830;28;20037;-79
2022/06/01 04:35:19;;;;;;;52.85;43.47;;;;;;;9.85;100.00;67868.31;5000079;28;20038;-78
2022/06/01 04:37:45;;;;;;;49.55;41.05;;;;;;;9.83;100.00;67868.72;5014165;28;20031;-77
2022/06/01 04:40:13;;;;;;;50.53;39.35;;;;;;;9.76;100.00;67857.56;5010837;28;20046;-79
2022/06/01 04:42:39;;;;;;;47.33;40.85;;;;;;;9.89;100.00;67872.84;5008300;28;20065;-78
2022/06/01 04:45:06;;;;;;;47.33;38.80;;;;;;;9.87;100.00;67870.03;5009699;28;20038;-78
2022/06/01 04:47:31;;;;;;;46.80;39.90;;;;;;;9.96;100.00;67885.00;5011574;28;20038;-76
2022/06/01 04:49:57;;;;;;;50.00;41.60;;;;;;;10.03;100.00;67890.84;5008629;28;20542;-79
2022/06/01 04:52:22;;;;;;;46.30;40.67;;;;;;;10.02;100.00;67892.38;4991020;28;20042;-79
2022/06/01 04:54:48;;;;;;;46.47;39.28;;;;;;;10.06;100.00;67891.56;4988843;28;20072;-77
2022/06/01 04:57:13;;;;;;;38.20;33.28;;;;;;;10.00;100.00;67884.78;5009492;28;20053;-79
2022/06/01 04:59:38;;;;;;;44.53;38.00;;;;;;;;;;5010140;28;20053;-79
2022/06/01 05:02:05;;;;;;;47.33;38.05;;;;;;;;;;5008124;28;20033;-78
2022/06/01 05:04:30;;;;;;;44.85;37.50;;;;;;;10.11;100.00;67897.25;5011347;28;20042;-79
2022/06/01 05:06:56;;;;;;;47.03;39.03;;;;;;;10.13;100.00;67898.97;5010488;28;20052;-79
2022/06/01 05:09:22;;;;;;;44.35;38.35;;;;;;;10.08;100.00;67893.84;5013792;28;20433;-80
2022/06/01 05:11:48;;;;;;;48.10;39.20;;;;;;;10.13;100.00;67902.19;5011495;28;20042;-79
2022/06/01 05:14:13;;;;;;;47.40;39.28;;;;;;;10.11;100.00;67896.69;5013915;28;20147;-79
2022/06/01 05:16:39;;;;;;;51.13;41.38;;;;;;;10.22;100.00;67913.94;5006208;28;20237;-79
2022/06/01 05:19:04;;;;;;;46.17;39.58;;;;;;;10.23;100.00;67910.28;5013149;28;20049;-79
2022/06/01 05:21:30;;;;;;;47.00;41.03;;;;;;;10.22;100.00;67911.81;5014938;28;20101;-79
2022/06/01 05:23:55;;;;;;;46.88;39.00;;;;;;;10.19;100.00;67907.88;5012647;28;20121;-79
2022/06/01 05:26:20;;;;;;;50.45;39.92;;;;;;;10.29;100.00;67917.13;4994696;28;20092;-79
2022/06/01 05:28:46;;;;;;;44.97;37.47;;;;;;;;;;5010177;28;20042;-80
2022/06/01 05:31:12;;;;;;;44.80;38.75;;;;;;;10.39;100.00;67928.47;5008137;28;20042;-78
2022/06/01 05:33:40;;;;;;;44.00;38.47;;;;;;;10.37;100.00;67925.63;5009269;28;20045;-79
2022/06/01 05:36:06;;;;;;;45.90;38.72;;;;;;;10.46;100.00;67930.53;5010627;28;20065;-77
2022/06/01 05:38:31;;;;;;;42.75;35.13;;;;;;;10.50;100.00;67940.41;5008239;28;20513;-78
2022/06/01 05:40:57;;;;;;;39.25;32.70;;;;;;;10.53;100.00;67945.88;5004297;28;20057;-78
2022/06/01 05:43:22;;;;;;;39.42;32.13;;;;;;;10.56;100.00;67941.88;5006141;28;20054;-78
2022/06/01 05:45:48;;;;;;;38.83;31.30;;;;;;;;;;5008064;28;20038;-78
2022/06/01 05:48:15;;;;;;;38.08;30.00;;;;;;;;;;5010114;28;20038;-79
2022/06/01 05:50:41;;;;;;;37.03;29.92;;;;;;;10.61;100.00;67958.19;5011725;28;20060;-79
2022/06/01 05:53:06;;;;;;;33.28;28.05;;;;;;;10.69;100.00;67956.06;4991757;28;20046;-80
2022/06/01 05:55:32;;;;;;;37.53;30.90;;;;;;;10.75;100.00;67970.28;5010048;28;20049;-80
2022/06/01 05:57:58;;;;;;;34.65;29.60;;;;;;;10.81;100.00;67975.00;5010060;28;20041;-81
2022/06/01 06:00:23;;;;;;;34.40;29.27;;;;;;;;;;5011213;28;20409;-80
2022/06/01 06:02:48;;;;;;;36.05;32.25;;;;;;;;;;4992984;28;20514;-81
2022/06/01 06:07:59;;;;;;;35.83;31.38;;;;;;;10.71;100.00;67968.41;5011805;28;20100;-80
2022/06/01 06:10:26;;;;;;;37.40;33.17;;;;;;;10.79;100.00;67972.75;5007696;28;20046;-80
2022/06/01 06:12:52;;;;;;;37.33;33.45;;;;;;;10.91;100.00;67985.22;5007772;28;20037;-80
2022/06/01 06:15:18;;;;;;;39.65;32.75;;;;;;;10.94;100.00;67994.53;5007971;28;20050;-80
2022/06/01 06:17:43;;;;;;;41.30;35.03;;;;;;;10.98;100.00;67993.16;5008994;28;20041;-80
2022/06/01 06:20:09;;;;;;;39.38;35.13;;;;;;;10.99;100.00;67997.53;5008647;28;20117;-79
2022/06/01 06:22:35;;;;;;;40.72;35.30;;;;;;;11.06;100.00;68002.25;5006296;28;20038;-80
2022/06/01 06:25:00;;;;;;;38.80;34.25;;;;;;;11.11;100.00;68007.94;5008509;28;20140;-80
2022/06/01 06:27:27;;;;;;;38.72;34.63;;;;;;;11.18;100.00;68015.88;5008391;28;20046;-79
2022/06/01 06:29:53;;;;;;;40.80;34.20;;;;;;;11.27;100.00;68025.50;5008180;28;20044;-80
2022/06/01 06:32:19;;;;;;;40.13;35.92;;;;;;;11.33;100.00;68032.31;4990541;28;20046;-79
2022/06/01 06:34:45;;;;;;;39.05;34.72;;;;;;;11.44;100.00;68044.25;5008900;28;20033;-79
2022/06/01 06:37:10;;;;;;;38.90;31.95;;;;;;;;;;4992068;28;20072;-80
2022/06/01 06:39:35;;;;;;;35.30;28.73;;;;;;;11.76;100.00;68080.03;5008053;28;20052;-80
2022/06/01 06:42:00;;;;;;;34.47;25.98;;;;;;;11.81;100.00;68085.16;5007321;28;20292;-79
2022/06/01 06:44:26;;;;;;;31.73;25.02;;;;;;;;;;4990012;28;20041;-80
2022/06/01 06:46:51;;;;;;;30.53;24.33;;;;;;;12.00;97.73;68106.19;5009432;28;20045;-80
2022/06/01 06:49:16;;;;;;;31.67;24.55;;;;;;;;;;5007321;28;20280;-80
2022/06/01 06:51:42;;;;;;;32.37;25.20;;;;;;;12.11;97.07;68121.94;5012542;28;20041;-81
2022/06/01 06:54:07;;;;;;;28.08;22.98;;;;;;;;;;5011516;28;20802;-81
2022/06/01 06:56:33;;;;;;;27.48;23.63;;;;;;;12.16;97.04;68124.38;5010664;28;20042;-80
2022/06/01 06:58:58;;;;;;;26.70;21.00;;;;;;;;;;5008624;28;20154;-81
2022/06/01 07:01:24;;;;;;;28.50;22.53;;;;;;;12.26;95.74;68135.72;5007490;28;20069;-79
2022/06/01 07:03:50;;;;;;;27.83;23.00;;;;;;;12.23;96.13;68131.75;5008681;28;20282;-80
2022/06/01 07:06:17;;;;;;;26.50;21.23;;;;;;;;;;5009592;28;20069;-80
2022/06/01 07:08:52;;;;;;;26.35;22.92;;;;;;;12.44;96.16;68155.63;5008842;28;20104;-81
2022/06/01 07:11:18;;;;;;;26.67;19.17;;;;;;;;;;5007326;28;20134;-80
2022/06/01 07:13:43;;;;;;;22.60;20.20;;;;;;;12.56;94.25;68168.69;4992826;28;20109;-79
2022/06/01 07:16:09;;;;;;;23.75;20.05;;;;;;;12.71;93.78;68180.38;5006053;28;20124;-80
2022/06/01 07:18:35;;;;;;;24.42;21.88;;;;;;;;;;5008985;28;20056;-79
2022/06/01 07:21:00;;;;;;;22.73;18.35;;;;;;;12.98;91.71;68210.53;5006091;28;20104;-79
2022/06/01 07:23:26;;;;;;;20.48;18.38;;;;;;;12.96;89.93;68213.59;4990208;28;20064;-80
2022/06/01 07:25:52;;;;;;;20.10;16.73;;;;;;;12.98;89.16;68215.31;5004526;28;20108;-79
2022/06/01 07:28:18;;;;;;;20.35;16.80;;;;;;;;;;5003887;28;20045;-80
2022/06/01 07:30:44;;;;;;;17.55;15.68;;;;;;;13.00;88.86;68217.56;5005545;28;20049;-80
2022/06/01 07:33:09;;;;;;;17.67;15.50;;;;;;;13.09;89.01;68227.81;5006213;28;20048;-81
2022/06/01 07:35:35;;;;;;;20.63;15.50;;;;;;;13.30;87.60;68251.16;5010796;28;20521;-81
2022/06/01 07:43:28;;;;;;;18.63;15.75;;;;;;;13.39;86.68;68255.47;5010612;28;20049;-81
2022/06/01 07:45:53;;;;;;;18.13;16.05;;;;;;;;;;5010523;28;20045;-81
2022/06/01 07:48:18;;;;;;;20.50;17.33;;;;;;;13.34;88.22;68255.13;5009656;28;20053;-79
2022/06/01 07:50:44;;;;;;;19.30;13.35;;;;;;;;;;5009298;28;20289;-81
2022/06/01 07:53:10;;;;;;;16.10;14.50;;;;;;;13.56;85.41;68274.25;5012695;28;20038;-80
2022/06/01 07:55:36;;;;;;;16.23;13.07;;;;;;;13.74;85.03;68295.28;4996168;28;20065;-80
2022/06/01 07:58:03;;;;;;;13.30;11.75;;;;;;;13.72;82.80;68298.34;5012625;28;20120;-80
2022/06/01 08:00:31;;;;;;;13.55;11.85;;;;;;;13.69;83.58;68294.94;5013749;28;20113;-80
2022/06/01 08:02:56;;;;;;;12.00;10.23;;;;;;;14.03;83.28;68326.56;5012576;28;20127;-81
2022/06/01 08:05:22;;;;;;;10.20;8.50;;;;;;;13.96;79.69;68327.19;5013219;28;20144;-80
2022/06/01 08:07:49;;;;;;;14.23;8.88;;;;;;;13.93;80.05;68316.31;5010390;28;20111;-80
2022/06/01 08:10:17;;;;;;;10.18;7.90;;;;;;;14.13;78.98;68337.94;5003564;28;20286;-80
2022/06/01 08:15:27;;;;;;;9.45;7.80;;;;;;;14.15;79.42;68346.13;5008745;28;20053;-80
2022/06/01 08:17:57;;;;;;;11.90;8.73;;;;;;;14.10;79.11;68340.47;5014128;28;20413;-79
2022/06/01 08:20:24;;;;;;;8.60;7.10;;;;;;;13.94;77.35;68322.25;5013174;28;20038;-79
2022/06/01 08:22:50;;;;;;;8.40;7.22;;;;;;;;;;5014888;28;20056;-79
2022/06/01 08:25:18;;;;;;;9.05;7.75;;;;;;;;;;4995548;28;20497;-80
2022/06/01 08:27:45;;;;;;;9.07;7.85;;;;;;;14.29;77.92;68356.16;5013874;28;20045;-79
2022/06/01 08:30:12;;;;;;;7.85;6.43;;;;;;;14.54;76.68;68389.41;4996407;28;20486;-79
2022/06/01 08:32:37;;;;;;;6.60;5.78;;;;;;;14.81;73.98;68419.03;5015975;28;20088;-80
2022/06/01 08:35:05;;;;;;;6.53;4.50;;;;;;;14.81;71.17;68413.66;5011525;28;20416;-78
2022/06/01 08:37:30;;;;;;;6.20;4.63;;;;;;;14.71;70.10;68399.59;5011772;28;20477;-79
2022/06/01 08:39:56;;;;;;;8.85;5.78;;;;;;;14.52;72.63;68381.78;5009857;28;20077;-80
2022/06/01 08:42:23;;;;;;;6.50;5.90;;;;;;;14.54;74.67;68384.06;4991701;28;20228;-79
2022/06/01 08:44:51;;;;;;;8.73;7.38;;;;;;;14.38;75.09;68365.81;5010637;28;20444;-79
2022/06/01 08:47:25;;;;;;;6.93;5.90;;;;;;;;;;5009577;28;20124;-78
2022/06/01 08:49:51;;;;;;;8.30;5.88;;;;;;;14.19;74.94;68350.13;4992665;28;20072;-79
2022/06/01 08:52:16;;;;;;;7.05;5.45;;;;;;;;;;5009517;28;20497;-80
2022/06/01 08:54:41;;;;;;;6.82;4.55;;;;;;;;;;5009114;28;20574;-79
2022/06/01 08:57:13;;;;;;;7.40;4.60;;;;;;;14.71;70.74;68402.84;5011505;28;20077;-80
2022/06/01 09:00:04;;;;;;;8.18;4.70;;;;;;;14.80;70.15;68417.88;5009477;28;20799;-79
2022/06/01 09:02:36;;;;;;;5.40;4.30;;;;;;;;;;4990403;28;20069;-80
2022/06/01 09:05:16;;;;;;;7.55;5.43;;;;;;;14.72;70.40;68409.34;5009678;28;20038;-80
2022/06/01 09:07:48;;;;;;;6.20;5.22;;;;;;;;;;5008685;28;20041;-80
2022/06/01 09:10:43;;;;;;;6.65;4.80;;;;;;;15.09;70.33;68445.53;5003059;28;20746;-79
2022/06/01 09:13:23;;;;;;;7.22;5.35;;;;;;;15.08;69.43;68444.41;5009982;28;20046;-81
2022/06/01 09:15:58;;;;;;;6.93;5.15;;;;;;;;;;5011136;28;20038;-79
2022/06/01 09:18:28;;;;;;;8.02;4.70;;;;;;;15.24;68.74;68462.06;5011426;28;20452;-80
2022/06/01 09:23:39;;;;;;;5.13;4.20;;;;;;;15.38;65.74;68477.44;5007894;28;20119;-79
2022/06/01 09:26:05;;;;;;;6.05;4.50;;;;;;;15.25;65.68;68462.66;5008776;28;20042;-79
2022/06/01 09:28:38;;;;;;;5.53;4.32;;;;;;;15.23;65.45;68460.94;5011748;28;20042;-80
2022/06/01 09:31:35;;;;;;;5.70;4.75;;;;;;;15.11;66.72;68445.16;5009156;28;20096;-79
2022/06/01 09:34:42;;;;;;;7.72;4.95;;;;;;;15.36;68.14;68480.50;5009128;28;20521;-81
2022/06/01 09:37:07;;;;;;;7.60;5.15;;;;;;;15.58;67.67;68505.03;4955869;28;20046;-80
2022/06/01 09:39:35;;;;;;;9.38;5.47;;;;;;;15.65;65.47;68507.06;5011363;28;20045;-80
2022/06/01 09:42:10;;;;;;;7.72;5.30;;;;;;;;;;5010636;28;20052;-80
2022/06/01 09:44:40;;;;;;;7.07;5.40;;;;;;;15.61;65.41;68507.88;5012488;28;20046;-81
2022/06/01 09:47:06;;;;;;;7.72;5.18;;;;;;;15.38;65.18;68477.44;5013480;28;20050;-80
2022/06/01 09:49:36;;;;;;;8.15;5.45;;;;;;;15.21;66.99;68458.06;5015493;28;20092;-81
2022/06/01 09:52:10;;;;;;;7.80;5.50;;;;;;;15.31;67.03;68470.03;5006624;28;20037;-81
2022/06/01 09:54:41;;;;;;;7.20;4.45;;;;;;;;;;5014524;28;22243;-80
2022/06/01 09:57:18;;;;;;;7.47;3.90;;;;;;;15.31;64.63;68469.47;5011386;28;20456;-80
2022/06/01 10:08:13;;;;;;;8.20;4.45;;;;;;;16.13;63.22;68566.00;5003640;28;20113;-81
2022/06/01 10:10:39;;;;;;;6.00;4.00;;;;;;;16.51;61.89;68602.81;5008811;28;20129;-81
2022/06/01 10:13:08;;;;;;;4.43;3.40;;;;;;;16.57;60.36;68609.66;5008958;28;20398;-79
2022/06/01 10:15:45;;;;;;;4.88;3.72;;;;;;;16.81;59.90;68636.47;5009699;28;20062;-78
2022/06/01 10:18:16;;;;;;;6.90;3.65;;;;;;;16.68;56.45;68622.19;5008240;28;20034;-80
2022/06/01 10:20:50;;;;;;;4.45;2.80;;;;;;;16.62;53.89;68609.97;5007858;28;20053;-80
2022/06/01 10:23:30;;;;;;;3.08;2.22;;;;;;;16.64;54.46;68623.59;5010577;28;20429;-80
2022/06/01 10:26:00;;;;;;;4.97;4.20;;;;;;;16.69;55.87;68628.72;5011945;28;20049;-80
2022/06/01 10:28:39;;;;;;;5.55;4.70;;;;;;;16.73;57.05;68627.91;5010450;28;20049;-80
2022/06/01 10:31:22;;;;;;;4.82;4.00;;;;;;;16.53;57.06;68602.41;5012322;28;20045;-81
2022/06/01 10:33:49;;;;;;;5.03;4.20;;;;;;;;;;5012241;28;20523;-81
2022/06/01 10:36:26;;;;;;;4.90;4.40;;;;;;;16.18;60.04;68571.72;5012093;28;20046;-81
2022/06/01 10:39:06;;;;;;;5.72;4.35;;;;;;;16.35;59.19;68591.09;5013390;28;20096;-81
2022/06/01 10:42:05;;;;;;;5.47;4.07;;;;;;;16.62;55.30;68615.34;4974985;28;20129;-81
2022/06/01 10:44:34;;;;;;;5.20;4.20;;;;;;;;;;4989848;28;20046;-81
2022/06/01 10:47:01;;;;;;;5.43;4.10;;;;;;;;;;5013342;28;20044;-81
2022/06/01 10:50:03;;;;;;;7.22;4.10;;;;;;;17.02;57.53;68655.03;5010610;28;20044;-79
2022/06/01 10:52:42;;;;;;;7.60;3.72;;;;;;;17.25;55.02;68683.41;4998523;28;20042;-80
2022/06/01 10:55:24;;;;;;;4.72;4.22;;;;;;;17.27;55.14;68688.38;5009052;28;20069;-80
2022/06/01 10:57:50;;;;;;;5.18;4.40;;;;;;;17.21;57.20;68681.53;5009022;28;20058;-79
2022/06/01 11:00:21;;;;;;;5.60;4.70;;;;;;;17.26;55.87;68686.66;5009383;28;20029;-80
2022/06/01 11:02:49;;;;;;;6.93;4.65;;;;;;;;;;5009039;28;20042;-81
2022/06/01 11:05:38;;;;;;;8.23;4.60;;;;;;;17.08;53.57;68666.69;5008510;28;20440;-80
2022/06/01 11:08:03;;;;;;;5.80;4.20;;;;;;;;;;5006782;28;20034;-80
2022/06/01 11:10:43;;;;;;;6.00;4.47;;;;;;;16.97;57.46;68660.09;5008453;28;20421;-80
2022/06/01 11:13:14;;;;;;;5.35;4.05;;;;;;;;;;5005102;28;20441;-80
2022/06/01 11:15:56;;;;;;;3.92;3.13;;;;;;;;;;5004976;28;20393;-79
2022/06/01 11:18:36;;;;;;;5.00;3.38;;;;;;;;;;5006487;28;20065;-79
2022/06/01 11:21:07;;;;;;;7.07;3.83;;;;;;;16.80;53.85;68635.34;5004077;28;20065;-78
2022/06/01 11:23:52;;;;;;;4.10;3.25;;;;;;;16.65;53.83;68624.72;5008504;28;20396;-79
2022/06/01 11:26:23;;;;;;;5.13;3.00;;;;;;;;;;5003959;28;20509;-79
2022/06/01 11:29:07;;;;;;;4.85;3.33;;;;;;;;;;5008043;28;20046;-78
2022/06/01 11:31:35;;;;;;;4.93;3.30;;;;;;;15.99;57.56;68545.81;5004718;28;20057;-79
2022/06/01 11:34:06;;;;;;;3.80;3.13;;;;;;;;;;4978467;28;20495;-79
2022/06/01 11:36:53;;;;;;;6.80;3.53;;;;;;;15.27;70.05;68464.91;5008044;28;20473;-79
2022/06/01 11:39:31;;;;;;;5.20;3.13;;;;;;;14.85;73.58;68423.59;4988536;28;20057;-79
2022/06/01 11:42:05;;;;;;;5.70;3.53;;;;;;;;;;4986281;28;20081;-79
2022/06/01 11:44:37;;;;;;;7.95;4.05;;;;;;;14.34;78.61;68366.63;4987163;28;20560;-78
2022/06/01 11:47:14;;;;;;;4.63;3.83;;;;;;;14.23;80.56;68355.25;4990265;28;20108;-79
2022/06/01 11:49:59;;;;;;;5.50;3.92;;;;;;;14.38;80.84;68371.75;5001844;28;20048;-79
2022/06/01 11:52:24;;;;;;;5.38;3.90;;;;;;;;;;5005716;28;20045;-79
2022/06/01 11:55:16;;;;;;;6.18;4.50;;;;;;;14.45;79.46;68379.16;5007966;28;20046;-78
2022/06/01 11:57:44;;;;;;;4.85;4.28;;;;;;;;;;4984592;28;20044;-78
2022/06/01 12:00:15;;;;;;;5.73;4.43;;;;;;;;;;5007375;28;20038;-79
2022/06/01 12:02:41;;;;;;;6.47;4.18;;;;;;;;;;4994362;28;20042;-78
2022/06/01 12:05:13;;;;;;;7.00;4.20;;;;;;;14.88;74.92;68421.63;5007571;28;20561;-79
2022/06/01 12:07:46;;;;;;;6.18;4.22;;;;;;;14.79;74.69;68411.97;5006113;28;20128;-79
2022/06/01 12:10:20;;;;;;;7.70;3.92;;;;;;;15.03;74.47;68444.06;5007171;28;20145;-80
2022/06/01 12:13:06;;;;;;;4.38;3.60;;;;;;;;;;4988958;28;20068;-79
2022/06/01 12:15:34;;;;;;;5.70;3.88;;;;;;;15.34;72.86;68472.88;4996715;28;20048;-79
2022/06/01 12:18:07;;;;;;;5.57;3.67;;;;;;;15.38;73.46;68482.81;5005906;28;20565;-79
2022/06/01 12:20:32;;;;;;;5.10;3.60;;;;;;;;;;5006931;28;20045;-79
2022/06/01 12:28:54;;;;;;;4.35;2.72;;;;;;;14.84;70.10;68412.28;5009416;28;20060;-79
2022/06/01 12:31:26;;;;;;;5.75;2.50;;;;;;;14.74;69.34;68411.06;5018385;22;20050;-76
2022/06/01 12:34:06;;;;;;;4.82;3.42;;;;;;;;;;5007645;28;20086;-76
2022/06/01 12:36:35;;;;;;;5.53;3.58;;;;;;;14.83;69.40;68421.31;5009378;28;20401;-76
2022/06/01 12:39:05;;;;;;;4.53;4.13;;;;;;;14.98;70.03;68438.38;5016860;28;20048;-76
2022/06/01 12:41:34;;;;;;;5.43;4.03;;;;;;;;;;5006231;28;20041;-76
2022/06/01 12:44:03;;;;;;;3.92;3.10;;;;;;;;;;5008314;28;20045;-76
2022/06/01 12:46:34;;;;;;;3.92;2.97;;;;;;;15.26;66.55;68461.09;5005039;28;20161;-76
2022/06/01 12:49:18;;;;;;;4.80;3.10;;;;;;;;;;5009632;28;20066;-76